sensor_id;sensor_type;location;lat;lon;timestamp;P1;durP1;ratioP1;P2;durP2;ratioP2
20095;SDS011;10207;50.942;6.900;2024-03-06T00:00:15;74.15;;;37.63;;
20095;SDS011;10207;50.942;6.900;2024-03-06T00:02:41;90.82;;;41.65;;
20095;SDS011;10207;50.942;6.900;2024-03-06T00:05:07;92.80;;;41.63;;
20095;SDS011;10207;50.942;6.900;2024-03-06T00:07:33;94.32;;;42.83;;
20095;SDS011;10207;50.942;6.900;2024-03-06T00:09:59;105.13;;;43.92;;
20095;SDS011;10207;50.942;6.900;2024-03-06T00:12:25;118.55;;;48.55;;
20095;SDS011;10207;50.942;6.900;2024-03-06T00:14:51;140.48;;;50.28;;
20095;SDS011;10207;50.942;6.900;2024-03-06T00:17:17;132.40;;;51.17;;
20095;SDS011;10207;50.942;6.900;2024-03-06T00:19:44;118.70;;;45.88;;
20095;SDS011;10207;50.942;6.900;2024-03-06T00:22:10;124.15;;;46.17;;
20095;SDS011;10207;50.942;6.900;2024-03-06T00:24:36;121.88;;;47.45;;
20095;SDS011;10207;50.942;6.900;2024-03-06T00:27:02;127.55;;;48.53;;
20095;SDS011;10207;50.942;6.900;2024-03-06T00:29:30;121.60;;;46.60;;
20095;SDS011;10207;50.942;6.900;2024-03-06T00:31:57;130.77;;;48.55;;
20095;SDS011;10207;50.942;6.900;2024-03-06T00:34:23;123.18;;;47.53;;
20095;SDS011;10207;50.942;6.900;2024-03-06T00:36:49;131.73;;;48.03;;
20095;SDS011;10207;50.942;6.900;2024-03-06T00:39:15;130.07;;;50.63;;
20095;SDS011;10207;50.942;6.900;2024-03-06T00:41:42;126.22;;;48.92;;
20095;SDS011;10207;50.942;6.900;2024-03-06T00:44:08;128.20;;;49.28;;
20095;SDS011;10207;50.942;6.900;2024-03-06T00:46:34;117.70;;;47.58;;
20095;SDS011;10207;50.942;6.900;2024-03-06T00:49:00;124.80;;;48.13;;
20095;SDS011;10207;50.942;6.900;2024-03-06T00:51:26;112.60;;;46.92;;
20095;SDS011;10207;50.942;6.900;2024-03-06T00:53:52;111.25;;;45.92;;
20095;SDS011;10207;50.942;6.900;2024-03-06T00:56:18;109.72;;;45.10;;
20095;SDS011;10207;50.942;6.900;2024-03-06T00:58:44;108.32;;;44.58;;
20095;SDS011;10207;50.942;6.900;2024-03-06T01:01:10;103.35;;;42.08;;
20095;SDS011;10207;50.942;6.900;2024-03-06T01:03:39;101.25;;;41.97;;
20095;SDS011;10207;50.942;6.900;2024-03-06T01:06:05;99.25;;;41.75;;
20095;SDS011;10207;50.942;6.900;2024-03-06T01:08:31;110.15;;;43.17;;
20095;SDS011;10207;50.942;6.900;2024-03-06T01:10:57;111.85;;;45.08;;
20095;SDS011;10207;50.942;6.900;2024-03-06T01:13:23;111.80;;;46.58;;
20095;SDS011;10207;50.942;6.900;2024-03-06T01:15:49;115.00;;;47.58;;
20095;SDS011;10207;50.942;6.900;2024-03-06T01:18:15;125.57;;;49.08;;
20095;SDS011;10207;50.942;6.900;2024-03-06T01:20:41;140.27;;;50.08;;
20095;SDS011;10207;50.942;6.900;2024-03-06T01:23:07;134.82;;;49.67;;
20095;SDS011;10207;50.942;6.900;2024-03-06T01:25:33;146.98;;;50.55;;
20095;SDS011;10207;50.942;6.900;2024-03-06T01:27:58;149.32;;;53.75;;
20095;SDS011;10207;50.942;6.900;2024-03-06T01:30:24;187.60;;;56.90;;
20095;SDS011;10207;50.942;6.900;2024-03-06T01:32:50;171.07;;;56.75;;
20095;SDS011;10207;50.942;6.900;2024-03-06T01:35:16;168.73;;;55.30;;
20095;SDS011;10207;50.942;6.900;2024-03-06T01:37:42;159.27;;;53.35;;
20095;SDS011;10207;50.942;6.900;2024-03-06T01:40:09;163.43;;;54.78;;
20095;SDS011;10207;50.942;6.900;2024-03-06T01:42:35;161.40;;;51.65;;
20095;SDS011;10207;50.942;6.900;2024-03-06T01:45:01;159.45;;;51.13;;
20095;SDS011;10207;50.942;6.900;2024-03-06T01:47:27;152.57;;;49.25;;
20095;SDS011;10207;50.942;6.900;2024-03-06T01:49:53;152.25;;;50.30;;
20095;SDS011;10207;50.942;6.900;2024-03-06T01:52:19;160.18;;;52.63;;
20095;SDS011;10207;50.942;6.900;2024-03-06T01:54:47;149.57;;;51.20;;
20095;SDS011;10207;50.942;6.900;2024-03-06T01:57:13;161.00;;;51.63;;
20095;SDS011;10207;50.942;6.900;2024-03-06T01:59:41;148.50;;;51.97;;
20095;SDS011;10207;50.942;6.900;2024-03-06T02:02:07;157.18;;;50.75;;
20095;SDS011;10207;50.942;6.900;2024-03-06T02:04:37;166.50;;;52.15;;
20095;SDS011;10207;50.942;6.900;2024-03-06T02:07:03;159.75;;;50.55;;
20095;SDS011;10207;50.942;6.900;2024-03-06T02:09:33;154.75;;;50.00;;
20095;SDS011;10207;50.942;6.900;2024-03-06T02:11:59;162.10;;;50.38;;
20095;SDS011;10207;50.942;6.900;2024-03-06T02:14:26;147.73;;;50.08;;
20095;SDS011;10207;50.942;6.900;2024-03-06T02:16:53;154.27;;;48.80;;
20095;SDS011;10207;50.942;6.900;2024-03-06T02:19:19;152.10;;;48.95;;
20095;SDS011;10207;50.942;6.900;2024-03-06T02:21:45;160.68;;;51.05;;
20095;SDS011;10207;50.942;6.900;2024-03-06T02:24:11;150.98;;;48.00;;
20095;SDS011;10207;50.942;6.900;2024-03-06T02:26:39;157.98;;;48.58;;
20095;SDS011;10207;50.942;6.900;2024-03-06T02:29:05;145.18;;;48.78;;
20095;SDS011;10207;50.942;6.900;2024-03-06T02:31:31;154.52;;;50.10;;
20095;SDS011;10207;50.942;6.900;2024-03-06T02:33:58;144.88;;;47.97;;
20095;SDS011;10207;50.942;6.900;2024-03-06T02:36:24;138.15;;;46.15;;
20095;SDS011;10207;50.942;6.900;2024-03-06T02:38:50;139.20;;;47.45;;
20095;SDS011;10207;50.942;6.900;2024-03-06T02:41:16;131.55;;;46.55;;
20095;SDS011;10207;50.942;6.900;2024-03-06T02:43:43;148.20;;;48.17;;
20095;SDS011;10207;50.942;6.900;2024-03-06T02:46:09;146.90;;;48.55;;
20095;SDS011;10207;50.942;6.900;2024-03-06T02:48:35;143.10;;;49.83;;
20095;SDS011;10207;50.942;6.900;2024-03-06T02:51:01;141.23;;;47.83;;
20095;SDS011;10207;50.942;6.900;2024-03-06T02:53:27;140.77;;;47.40;;
20095;SDS011;10207;50.942;6.900;2024-03-06T02:55:53;133.68;;;46.95;;
20095;SDS011;10207;50.942;6.900;2024-03-06T02:58:19;134.98;;;45.38;;
20095;SDS011;10207;50.942;6.900;2024-03-06T03:00:45;136.65;;;46.92;;
20095;SDS011;10207;50.942;6.900;2024-03-06T03:03:12;135.98;;;47.10;;
20095;SDS011;10207;50.942;6.900;2024-03-06T03:05:38;133.55;;;43.95;;
20095;SDS011;10207;50.942;6.900;2024-03-06T03:08:05;119.78;;;41.38;;
20095;SDS011;10207;50.942;6.900;2024-03-06T03:10:32;113.10;;;41.10;;
20095;SDS011;10207;50.942;6.900;2024-03-06T03:13:00;109.57;;;39.00;;
20095;SDS011;10207;50.942;6.900;2024-03-06T03:15:26;100.13;;;38.15;;
20095;SDS011;10207;50.942;6.900;2024-03-06T03:17:52;106.05;;;38.88;;
20095;SDS011;10207;50.942;6.900;2024-03-06T03:20:18;112.32;;;41.47;;
20095;SDS011;10207;50.942;6.900;2024-03-06T03:22:44;112.53;;;39.83;;
20095;SDS011;10207;50.942;6.900;2024-03-06T03:25:11;120.50;;;42.70;;
20095;SDS011;10207;50.942;6.900;2024-03-06T03:27:40;121.00;;;43.60;;
20095;SDS011;10207;50.942;6.900;2024-03-06T03:30:07;124.88;;;41.90;;
20095;SDS011;10207;50.942;6.900;2024-03-06T03:32:34;131.93;;;43.38;;
20095;SDS011;10207;50.942;6.900;2024-03-06T03:35:00;139.93;;;44.03;;
20095;SDS011;10207;50.942;6.900;2024-03-06T03:37:26;141.13;;;45.65;;
20095;SDS011;10207;50.942;6.900;2024-03-06T03:39:54;148.57;;;44.67;;
20095;SDS011;10207;50.942;6.900;2024-03-06T03:42:20;152.90;;;46.92;;
20095;SDS011;10207;50.942;6.900;2024-03-06T03:44:46;142.57;;;45.35;;
20095;SDS011;10207;50.942;6.900;2024-03-06T03:47:12;136.73;;;42.22;;
20095;SDS011;10207;50.942;6.900;2024-03-06T03:49:38;127.80;;;43.45;;
20095;SDS011;10207;50.942;6.900;2024-03-06T03:52:04;104.60;;;33.55;;
20095;SDS011;10207;50.942;6.900;2024-03-06T03:54:30;95.28;;;33.28;;
20095;SDS011;10207;50.942;6.900;2024-03-06T03:56:56;91.90;;;32.38;;
20095;SDS011;10207;50.942;6.900;2024-03-06T03:59:25;83.72;;;31.60;;
20095;SDS011;10207;50.942;6.900;2024-03-06T04:01:51;87.18;;;32.10;;
20095;SDS011;10207;50.942;6.900;2024-03-06T04:04:18;82.72;;;29.65;;
20095;SDS011;10207;50.942;6.900;2024-03-06T04:06:43;68.47;;;27.95;;
20095;SDS011;10207;50.942;6.900;2024-03-06T04:09:10;64.40;;;25.35;;
20095;SDS011;10207;50.942;6.900;2024-03-06T04:11:36;64.18;;;26.45;;
20095;SDS011;10207;50.942;6.900;2024-03-06T04:14:03;58.13;;;24.15;;
20095;SDS011;10207;50.942;6.900;2024-03-06T04:16:30;53.58;;;23.33;;
20095;SDS011;10207;50.942;6.900;2024-03-06T04:18:56;54.17;;;22.70;;
20095;SDS011;10207;50.942;6.900;2024-03-06T04:21:22;54.20;;;22.35;;
20095;SDS011;10207;50.942;6.900;2024-03-06T04:23:48;47.03;;;21.55;;
20095;SDS011;10207;50.942;6.900;2024-03-06T04:26:14;49.05;;;21.70;;
20095;SDS011;10207;50.942;6.900;2024-03-06T04:28:40;49.70;;;21.05;;
20095;SDS011;10207;50.942;6.900;2024-03-06T04:31:06;46.30;;;20.10;;
20095;SDS011;10207;50.942;6.900;2024-03-06T04:33:33;42.58;;;20.70;;
20095;SDS011;10207;50.942;6.900;2024-03-06T04:36:01;49.60;;;18.52;;
20095;SDS011;10207;50.942;6.900;2024-03-06T04:38:28;45.15;;;19.80;;
20095;SDS011;10207;50.942;6.900;2024-03-06T04:40:55;46.10;;;20.15;;
20095;SDS011;10207;50.942;6.900;2024-03-06T04:43:21;41.05;;;20.75;;
20095;SDS011;10207;50.942;6.900;2024-03-06T04:45:47;42.90;;;19.08;;
20095;SDS011;10207;50.942;6.900;2024-03-06T04:48:13;37.75;;;19.63;;
20095;SDS011;10207;50.942;6.900;2024-03-06T04:50:39;37.05;;;17.38;;
20095;SDS011;10207;50.942;6.900;2024-03-06T04:53:05;34.13;;;17.05;;
20095;SDS011;10207;50.942;6.900;2024-03-06T04:55:31;34.75;;;16.67;;
20095;SDS011;10207;50.942;6.900;2024-03-06T04:57:57;24.63;;;14.98;;
20095;SDS011;10207;50.942;6.900;2024-03-06T05:00:24;28.40;;;15.25;;
20095;SDS011;10207;50.942;6.900;2024-03-06T05:02:50;28.67;;;13.88;;
20095;SDS011;10207;50.942;6.900;2024-03-06T05:05:16;21.67;;;12.68;;
20095;SDS011;10207;50.942;6.900;2024-03-06T05:07:42;22.25;;;12.18;;
20095;SDS011;10207;50.942;6.900;2024-03-06T05:10:08;16.40;;;11.63;;
20095;SDS011;10207;50.942;6.900;2024-03-06T05:12:34;21.15;;;12.40;;
20095;SDS011;10207;50.942;6.900;2024-03-06T05:15:00;17.58;;;10.80;;
20095;SDS011;10207;50.942;6.900;2024-03-06T05:17:26;19.85;;;11.05;;
20095;SDS011;10207;50.942;6.900;2024-03-06T05:19:53;21.42;;;10.80;;
20095;SDS011;10207;50.942;6.900;2024-03-06T05:22:20;15.98;;;9.88;;
20095;SDS011;10207;50.942;6.900;2024-03-06T05:24:46;17.42;;;10.40;;
20095;SDS011;10207;50.942;6.900;2024-03-06T05:27:13;17.02;;;10.30;;
20095;SDS011;10207;50.942;6.900;2024-03-06T05:29:42;14.30;;;9.25;;
20095;SDS011;10207;50.942;6.900;2024-03-06T05:32:09;19.27;;;10.55;;
20095;SDS011;10207;50.942;6.900;2024-03-06T05:34:34;12.05;;;8.55;;
20095;SDS011;10207;50.942;6.900;2024-03-06T05:37:01;10.80;;;7.68;;
20095;SDS011;10207;50.942;6.900;2024-03-06T05:39:29;12.50;;;8.07;;
20095;SDS011;10207;50.942;6.900;2024-03-06T05:41:55;11.65;;;8.27;;
20095;SDS011;10207;50.942;6.900;2024-03-06T05:44:21;14.45;;;8.00;;
20095;SDS011;10207;50.942;6.900;2024-03-06T05:46:48;11.98;;;8.15;;
20095;SDS011;10207;50.942;6.900;2024-03-06T05:49:14;13.75;;;8.80;;
20095;SDS011;10207;50.942;6.900;2024-03-06T05:51:40;13.30;;;8.80;;
20095;SDS011;10207;50.942;6.900;2024-03-06T05:54:06;14.20;;;8.20;;
20095;SDS011;10207;50.942;6.900;2024-03-06T05:56:34;19.98;;;8.52;;
20095;SDS011;10207;50.942;6.900;2024-03-06T05:59:00;12.48;;;8.43;;
20095;SDS011;10207;50.942;6.900;2024-03-06T06:01:30;15.85;;;8.35;;
20095;SDS011;10207;50.942;6.900;2024-03-06T06:03:56;10.77;;;7.97;;
20095;SDS011;10207;50.942;6.900;2024-03-06T06:06:22;11.55;;;7.20;;
20095;SDS011;10207;50.942;6.900;2024-03-06T06:08:48;12.88;;;7.82;;
20095;SDS011;10207;50.942;6.900;2024-03-06T06:11:15;13.57;;;8.20;;
20095;SDS011;10207;50.942;6.900;2024-03-06T06:13:40;13.02;;;7.25;;
20095;SDS011;10207;50.942;6.900;2024-03-06T06:16:07;9.50;;;7.28;;
20095;SDS011;10207;50.942;6.900;2024-03-06T06:18:33;10.52;;;7.72;;
20095;SDS011;10207;50.942;6.900;2024-03-06T06:20:59;11.95;;;7.55;;
20095;SDS011;10207;50.942;6.900;2024-03-06T06:23:25;9.32;;;7.20;;
20095;SDS011;10207;50.942;6.900;2024-03-06T06:25:51;13.93;;;7.82;;
20095;SDS011;10207;50.942;6.900;2024-03-06T06:28:17;11.05;;;7.43;;
20095;SDS011;10207;50.942;6.900;2024-03-06T06:30:44;9.68;;;6.53;;
20095;SDS011;10207;50.942;6.900;2024-03-06T06:33:10;11.88;;;6.43;;
20095;SDS011;10207;50.942;6.900;2024-03-06T06:35:36;12.07;;;7.13;;
20095;SDS011;10207;50.942;6.900;2024-03-06T06:38:02;9.38;;;6.90;;
20095;SDS011;10207;50.942;6.900;2024-03-06T06:40:28;12.48;;;6.68;;
20095;SDS011;10207;50.942;6.900;2024-03-06T06:42:54;9.07;;;6.32;;
20095;SDS011;10207;50.942;6.900;2024-03-06T06:45:20;10.18;;;6.55;;
20095;SDS011;10207;50.942;6.900;2024-03-06T06:47:48;10.35;;;6.55;;
20095;SDS011;10207;50.942;6.900;2024-03-06T06:50:14;10.63;;;6.38;;
20095;SDS011;10207;50.942;6.900;2024-03-06T06:52:41;8.68;;;6.30;;
20095;SDS011;10207;50.942;6.900;2024-03-06T06:55:07;10.00;;;7.03;;
20095;SDS011;10207;50.942;6.900;2024-03-06T06:57:37;9.43;;;6.03;;
20095;SDS011;10207;50.942;6.900;2024-03-06T07:00:04;9.38;;;5.72;;
20095;SDS011;10207;50.942;6.900;2024-03-06T07:02:36;9.65;;;5.82;;
20095;SDS011;10207;50.942;6.900;2024-03-06T07:05:02;10.30;;;6.05;;
20095;SDS011;10207;50.942;6.900;2024-03-06T07:07:30;10.80;;;5.35;;
20095;SDS011;10207;50.942;6.900;2024-03-06T07:09:56;6.40;;;4.63;;
20095;SDS011;10207;50.942;6.900;2024-03-06T07:12:23;6.07;;;4.60;;
20095;SDS011;10207;50.942;6.900;2024-03-06T07:14:49;5.30;;;4.38;;
20095;SDS011;10207;50.942;6.900;2024-03-06T07:17:15;6.63;;;4.65;;
20095;SDS011;10207;50.942;6.900;2024-03-06T07:19:41;9.82;;;5.00;;
20095;SDS011;10207;50.942;6.900;2024-03-06T07:22:07;6.78;;;4.47;;
20095;SDS011;10207;50.942;6.900;2024-03-06T07:24:33;6.95;;;4.18;;
20095;SDS011;10207;50.942;6.900;2024-03-06T07:26:59;5.25;;;3.97;;
20095;SDS011;10207;50.942;6.900;2024-03-06T07:29:27;8.80;;;3.83;;
20095;SDS011;10207;50.942;6.900;2024-03-06T07:31:53;4.85;;;4.18;;
20095;SDS011;10207;50.942;6.900;2024-03-06T07:34:20;6.05;;;3.85;;
20095;SDS011;10207;50.942;6.900;2024-03-06T07:36:49;5.07;;;3.90;;
20095;SDS011;10207;50.942;6.900;2024-03-06T07:39:15;4.80;;;3.70;;
20095;SDS011;10207;50.942;6.900;2024-03-06T07:41:41;6.38;;;4.25;;
20095;SDS011;10207;50.942;6.900;2024-03-06T07:44:08;6.32;;;3.88;;
20095;SDS011;10207;50.942;6.900;2024-03-06T07:46:34;6.72;;;4.75;;
20095;SDS011;10207;50.942;6.900;2024-03-06T07:49:01;6.30;;;4.70;;
20095;SDS011;10207;50.942;6.900;2024-03-06T07:51:29;6.88;;;4.40;;
20095;SDS011;10207;50.942;6.900;2024-03-06T07:53:57;7.93;;;4.05;;
20095;SDS011;10207;50.942;6.900;2024-03-06T07:56:26;7.25;;;3.78;;
20095;SDS011;10207;50.942;6.900;2024-03-06T07:58:53;4.07;;;3.22;;
20095;SDS011;10207;50.942;6.900;2024-03-06T08:01:22;7.72;;;3.67;;
20095;SDS011;10207;50.942;6.900;2024-03-06T08:03:49;6.88;;;3.95;;
20095;SDS011;10207;50.942;6.900;2024-03-06T08:06:15;5.20;;;3.03;;
20095;SDS011;10207;50.942;6.900;2024-03-06T08:08:42;8.90;;;3.63;;
20095;SDS011;10207;50.942;6.900;2024-03-06T08:11:10;6.63;;;3.45;;
20095;SDS011;10207;50.942;6.900;2024-03-06T08:13:37;8.35;;;3.50;;
20095;SDS011;10207;50.942;6.900;2024-03-06T08:16:04;5.72;;;3.00;;
20095;SDS011;10207;50.942;6.900;2024-03-06T08:18:30;7.03;;;3.50;;
20095;SDS011;10207;50.942;6.900;2024-03-06T08:20:56;7.47;;;4.20;;
20095;SDS011;10207;50.942;6.900;2024-03-06T08:23:23;5.05;;;3.53;;
20095;SDS011;10207;50.942;6.900;2024-03-06T08:25:49;4.30;;;3.65;;
20095;SDS011;10207;50.942;6.900;2024-03-06T08:28:15;7.65;;;3.60;;
20095;SDS011;10207;50.942;6.900;2024-03-06T08:30:42;6.15;;;2.97;;
20095;SDS011;10207;50.942;6.900;2024-03-06T08:33:10;4.90;;;3.10;;
20095;SDS011;10207;50.942;6.900;2024-03-06T08:35:36;9.23;;;3.88;;
20095;SDS011;10207;50.942;6.900;2024-03-06T08:38:03;9.82;;;3.13;;
20095;SDS011;10207;50.942;6.900;2024-03-06T08:40:29;5.32;;;3.38;;
20095;SDS011;10207;50.942;6.900;2024-03-06T08:42:55;5.00;;;3.30;;
20095;SDS011;10207;50.942;6.900;2024-03-06T08:45:22;8.43;;;3.40;;
20095;SDS011;10207;50.942;6.900;2024-03-06T08:47:49;3.88;;;2.85;;
20095;SDS011;10207;50.942;6.900;2024-03-06T08:50:15;5.22;;;3.08;;
20095;SDS011;10207;50.942;6.900;2024-03-06T08:52:41;8.35;;;4.53;;
20095;SDS011;10207;50.942;6.900;2024-03-06T08:55:07;6.03;;;3.70;;
20095;SDS011;10207;50.942;6.900;2024-03-06T08:57:34;6.50;;;4.10;;
20095;SDS011;10207;50.942;6.900;2024-03-06T09:00:00;5.57;;;3.67;;
20095;SDS011;10207;50.942;6.900;2024-03-06T09:02:26;8.65;;;4.93;;
20095;SDS011;10207;50.942;6.900;2024-03-06T09:04:52;6.80;;;4.43;;
20095;SDS011;10207;50.942;6.900;2024-03-06T09:07:19;6.30;;;4.50;;
20095;SDS011;10207;50.942;6.900;2024-03-06T09:09:46;9.93;;;4.65;;
20095;SDS011;10207;50.942;6.900;2024-03-06T09:12:11;6.65;;;4.57;;
20095;SDS011;10207;50.942;6.900;2024-03-06T09:14:38;10.55;;;4.72;;
20095;SDS011;10207;50.942;6.900;2024-03-06T09:17:04;11.02;;;5.50;;
20095;SDS011;10207;50.942;6.900;2024-03-06T09:19:31;7.30;;;4.72;;
20095;SDS011;10207;50.942;6.900;2024-03-06T09:21:58;7.75;;;4.97;;
20095;SDS011;10207;50.942;6.900;2024-03-06T09:24:24;6.45;;;4.97;;
20095;SDS011;10207;50.942;6.900;2024-03-06T09:26:52;6.72;;;5.57;;
20095;SDS011;10207;50.942;6.900;2024-03-06T09:29:18;7.07;;;5.55;;
20095;SDS011;10207;50.942;6.900;2024-03-06T09:31:44;9.68;;;5.50;;
20095;SDS011;10207;50.942;6.900;2024-03-06T09:34:11;7.60;;;5.43;;
20095;SDS011;10207;50.942;6.900;2024-03-06T09:36:39;8.88;;;5.00;;
20095;SDS011;10207;50.942;6.900;2024-03-06T09:39:05;10.63;;;6.13;;
20095;SDS011;10207;50.942;6.900;2024-03-06T09:41:31;8.15;;;5.30;;
20095;SDS011;10207;50.942;6.900;2024-03-06T09:43:59;10.45;;;6.18;;
20095;SDS011;10207;50.942;6.900;2024-03-06T09:46:25;7.82;;;6.38;;
20095;SDS011;10207;50.942;6.900;2024-03-06T09:48:52;12.15;;;7.05;;
20095;SDS011;10207;50.942;6.900;2024-03-06T09:51:19;13.25;;;7.95;;
20095;SDS011;10207;50.942;6.900;2024-03-06T09:53:46;13.00;;;7.93;;
20095;SDS011;10207;50.942;6.900;2024-03-06T09:56:15;18.70;;;8.65;;
20095;SDS011;10207;50.942;6.900;2024-03-06T09:58:41;25.02;;;10.80;;
20095;SDS011;10207;50.942;6.900;2024-03-06T10:01:08;20.38;;;9.75;;
20095;SDS011;10207;50.942;6.900;2024-03-06T10:03:34;12.63;;;7.90;;
20095;SDS011;10207;50.942;6.900;2024-03-06T10:06:00;11.70;;;8.05;;
20095;SDS011;10207;50.942;6.900;2024-03-06T10:08:26;11.15;;;7.95;;
20095;SDS011;10207;50.942;6.900;2024-03-06T10:10:53;11.65;;;8.98;;
20095;SDS011;10207;50.942;6.900;2024-03-06T10:13:23;11.77;;;8.65;;
20095;SDS011;10207;50.942;6.900;2024-03-06T10:16:00;11.27;;;8.73;;
20095;SDS011;10207;50.942;6.900;2024-03-06T10:18:27;12.90;;;9.20;;
20095;SDS011;10207;50.942;6.900;2024-03-06T10:20:53;11.38;;;8.55;;
20095;SDS011;10207;50.942;6.900;2024-03-06T10:23:19;14.50;;;9.05;;
20095;SDS011;10207;50.942;6.900;2024-03-06T10:25:49;11.00;;;9.15;;
20095;SDS011;10207;50.942;6.900;2024-03-06T10:28:18;11.43;;;8.73;;
20095;SDS011;10207;50.942;6.900;2024-03-06T10:30:45;11.05;;;8.45;;
20095;SDS011;10207;50.942;6.900;2024-03-06T10:33:12;13.40;;;8.27;;
20095;SDS011;10207;50.942;6.900;2024-03-06T10:35:42;11.90;;;8.18;;
20095;SDS011;10207;50.942;6.900;2024-03-06T10:38:09;12.35;;;8.65;;
20095;SDS011;10207;50.942;6.900;2024-03-06T10:40:37;17.25;;;9.57;;
20095;SDS011;10207;50.942;6.900;2024-03-06T10:43:04;12.98;;;8.95;;
20095;SDS011;10207;50.942;6.900;2024-03-06T10:48:00;14.93;;;9.70;;
20095;SDS011;10207;50.942;6.900;2024-03-06T10:50:26;15.70;;;9.93;;
20095;SDS011;10207;50.942;6.900;2024-03-06T10:52:53;11.38;;;8.20;;
20095;SDS011;10207;50.942;6.900;2024-03-06T10:55:21;9.88;;;8.38;;
20095;SDS011;10207;50.942;6.900;2024-03-06T10:57:47;11.10;;;8.73;;
20095;SDS011;10207;50.942;6.900;2024-03-06T11:00:14;11.30;;;8.98;;
20095;SDS011;10207;50.942;6.900;2024-03-06T11:02:47;12.63;;;8.68;;
20095;SDS011;10207;50.942;6.900;2024-03-06T11:05:15;12.70;;;9.07;;
20095;SDS011;10207;50.942;6.900;2024-03-06T11:07:41;13.77;;;10.68;;
20095;SDS011;10207;50.942;6.900;2024-03-06T11:10:07;13.43;;;10.13;;
20095;SDS011;10207;50.942;6.900;2024-03-06T11:12:37;14.88;;;9.93;;
20095;SDS011;10207;50.942;6.900;2024-03-06T11:15:10;13.18;;;9.18;;
20095;SDS011;10207;50.942;6.900;2024-03-06T11:17:39;12.48;;;8.88;;
20095;SDS011;10207;50.942;6.900;2024-03-06T11:28:05;16.02;;;10.38;;
20095;SDS011;10207;50.942;6.900;2024-03-06T11:30:31;12.43;;;8.88;;
20095;SDS011;10207;50.942;6.900;2024-03-06T11:32:57;13.60;;;9.57;;
20095;SDS011;10207;50.942;6.900;2024-03-06T11:35:23;14.98;;;10.82;;
20095;SDS011;10207;50.942;6.900;2024-03-06T11:37:49;14.45;;;10.05;;
20095;SDS011;10207;50.942;6.900;2024-03-06T11:40:24;13.32;;;10.32;;
20095;SDS011;10207;50.942;6.900;2024-03-06T11:42:51;13.95;;;10.27;;
20095;SDS011;10207;50.942;6.900;2024-03-06T11:45:18;14.60;;;10.30;;
20095;SDS011;10207;50.942;6.900;2024-03-06T11:47:58;14.27;;;11.13;;
20095;SDS011;10207;50.942;6.900;2024-03-06T11:50:28;15.98;;;12.00;;
20095;SDS011;10207;50.942;6.900;2024-03-06T11:52:55;16.13;;;12.57;;
20095;SDS011;10207;50.942;6.900;2024-03-06T11:55:21;13.13;;;11.73;;
20095;SDS011;10207;50.942;6.900;2024-03-06T11:57:48;14.13;;;11.00;;
20095;SDS011;10207;50.942;6.900;2024-03-06T12:00:14;14.65;;;10.63;;
20095;SDS011;10207;50.942;6.900;2024-03-06T12:02:40;15.70;;;12.48;;
20095;SDS011;10207;50.942;6.900;2024-03-06T12:05:07;15.75;;;10.75;;
20095;SDS011;10207;50.942;6.900;2024-03-06T12:07:45;15.48;;;12.55;;
20095;SDS011;10207;50.942;6.900;2024-03-06T12:10:12;14.52;;;11.13;;
20095;SDS011;10207;50.942;6.900;2024-03-06T12:12:38;18.40;;;11.60;;
20095;SDS011;10207;50.942;6.900;2024-03-06T12:15:04;11.80;;;9.70;;
20095;SDS011;10207;50.942;6.900;2024-03-06T12:17:31;14.95;;;10.57;;
20095;SDS011;10207;50.942;6.900;2024-03-06T12:19:58;14.23;;;10.40;;
20095;SDS011;10207;50.942;6.900;2024-03-06T12:22:25;16.77;;;11.18;;
20095;SDS011;10207;50.942;6.900;2024-03-06T12:25:00;20.55;;;12.73;;
20095;SDS011;10207;50.942;6.900;2024-03-06T12:27:26;18.90;;;12.85;;
20095;SDS011;10207;50.942;6.900;2024-03-06T12:29:52;16.98;;;12.20;;
20095;SDS011;10207;50.942;6.900;2024-03-06T12:32:19;15.57;;;12.15;;
20095;SDS011;10207;50.942;6.900;2024-03-06T12:34:55;16.73;;;11.85;;
20095;SDS011;10207;50.942;6.900;2024-03-06T12:37:21;14.23;;;11.00;;
20095;SDS011;10207;50.942;6.900;2024-03-06T12:39:53;14.70;;;11.75;;
20095;SDS011;10207;50.942;6.900;2024-03-06T12:42:20;17.33;;;11.18;;
20095;SDS011;10207;50.942;6.900;2024-03-06T12:44:45;13.98;;;11.55;;
20095;SDS011;10207;50.942;6.900;2024-03-06T12:47:11;16.42;;;11.95;;
20095;SDS011;10207;50.942;6.900;2024-03-06T12:49:37;15.18;;;11.82;;
20095;SDS011;10207;50.942;6.900;2024-03-06T12:52:03;13.73;;;10.30;;
20095;SDS011;10207;50.942;6.900;2024-03-06T12:54:30;14.48;;;10.73;;
20095;SDS011;10207;50.942;6.900;2024-03-06T12:56:56;15.55;;;10.43;;
20095;SDS011;10207;50.942;6.900;2024-03-06T12:59:22;14.48;;;10.50;;
20095;SDS011;10207;50.942;6.900;2024-03-06T13:01:49;15.93;;;10.82;;
20095;SDS011;10207;50.942;6.900;2024-03-06T13:04:15;13.73;;;10.77;;
20095;SDS011;10207;50.942;6.900;2024-03-06T13:06:41;13.02;;;10.10;;
20095;SDS011;10207;50.942;6.900;2024-03-06T13:09:07;14.02;;;10.05;;
20095;SDS011;10207;50.942;6.900;2024-03-06T13:11:33;13.23;;;10.68;;
20095;SDS011;10207;50.942;6.900;2024-03-06T13:13:59;13.52;;;10.45;;
20095;SDS011;10207;50.942;6.900;2024-03-06T13:16:26;12.73;;;9.43;;
20095;SDS011;10207;50.942;6.900;2024-03-06T13:18:53;14.18;;;10.30;;
20095;SDS011;10207;50.942;6.900;2024-03-06T13:21:22;13.68;;;9.60;;
20095;SDS011;10207;50.942;6.900;2024-03-06T13:23:49;12.20;;;9.18;;
20095;SDS011;10207;50.942;6.900;2024-03-06T13:26:15;12.45;;;9.75;;
20095;SDS011;10207;50.942;6.900;2024-03-06T13:28:41;12.23;;;9.27;;
20095;SDS011;10207;50.942;6.900;2024-03-06T13:31:07;11.45;;;9.13;;
20095;SDS011;10207;50.942;6.900;2024-03-06T13:33:33;10.55;;;8.63;;
20095;SDS011;10207;50.942;6.900;2024-03-06T13:35:59;14.27;;;9.32;;
20095;SDS011;10207;50.942;6.900;2024-03-06T13:38:26;10.05;;;8.05;;
20095;SDS011;10207;50.942;6.900;2024-03-06T13:40:51;9.52;;;7.20;;
20095;SDS011;10207;50.942;6.900;2024-03-06T13:43:18;11.20;;;8.13;;
20095;SDS011;10207;50.942;6.900;2024-03-06T13:45:51;9.20;;;7.40;;
20095;SDS011;10207;50.942;6.900;2024-03-06T13:48:17;9.13;;;7.22;;
20095;SDS011;10207;50.942;6.900;2024-03-06T13:50:45;8.23;;;6.55;;
20095;SDS011;10207;50.942;6.900;2024-03-06T13:53:11;8.80;;;6.65;;
20095;SDS011;10207;50.942;6.900;2024-03-06T13:55:37;9.48;;;6.18;;
20095;SDS011;10207;50.942;6.900;2024-03-06T13:58:03;8.07;;;6.43;;
20095;SDS011;10207;50.942;6.900;2024-03-06T14:00:30;8.18;;;6.78;;
20095;SDS011;10207;50.942;6.900;2024-03-06T14:02:56;7.90;;;6.28;;
20095;SDS011;10207;50.942;6.900;2024-03-06T14:05:22;9.13;;;7.00;;
20095;SDS011;10207;50.942;6.900;2024-03-06T14:07:51;8.60;;;7.18;;
20095;SDS011;10207;50.942;6.900;2024-03-06T14:10:17;9.02;;;6.28;;
20095;SDS011;10207;50.942;6.900;2024-03-06T14:12:47;7.50;;;6.13;;
20095;SDS011;10207;50.942;6.900;2024-03-06T14:15:20;8.85;;;6.75;;
20095;SDS011;10207;50.942;6.900;2024-03-06T14:17:48;9.45;;;6.45;;
20095;SDS011;10207;50.942;6.900;2024-03-06T14:20:14;8.88;;;6.57;;
20095;SDS011;10207;50.942;6.900;2024-03-06T14:22:41;9.50;;;6.60;;
20095;SDS011;10207;50.942;6.900;2024-03-06T14:25:08;8.52;;;6.15;;
20095;SDS011;10207;50.942;6.900;2024-03-06T14:27:34;10.90;;;6.10;;
20095;SDS011;10207;50.942;6.900;2024-03-06T14:30:02;9.73;;;6.85;;
20095;SDS011;10207;50.942;6.900;2024-03-06T14:32:28;9.43;;;5.95;;
20095;SDS011;10207;50.942;6.900;2024-03-06T14:34:54;9.70;;;6.47;;